Time;durP1;ratioP1;P1;durP2;ratioP2;P2;SDS_P1;SDS_P2;PMS_P1;PMS_P2;Temp;Humidity;BMP_temperature;BMP_pressure;BME280_temperature;BME280_humidity;BME280_pressure;Samples;Min_cycle;Max_cycle;Signal;HPM_P1;HPM_P2
2022/03/10 00:00:43;;;;;;;26.60;2.60;;;;;;;21.39;34.60;101348.00;4178908;28;20098;-64
2022/03/10 00:02:45;;;;;;;16.67;2.08;;;;;;;21.40;34.82;101346.91;4200153;28;20045;-64
2022/03/10 00:04:50;;;;;;;14.73;3.15;;;;;;;21.39;34.65;101364.69;4195969;28;20089;-63
2022/03/10 00:06:51;;;;;;;14.82;2.55;;;;;;;21.40;34.60;101355.25;4195531;28;20419;-65
2022/03/10 00:08:52;;;;;;;23.65;2.58;;;;;;;21.42;34.45;101353.03;4197228;28;20041;-65
2022/03/10 00:10:54;;;;;;;15.57;1.73;;;;;;;21.23;34.62;101322.03;4190520;28;20041;-65
2022/03/10 00:12:55;;;;;;;18.27;1.77;;;;;;;21.41;34.45;101373.63;4195741;28;20036;-65
2022/03/10 00:14:56;;;;;;;22.15;1.98;;;;;;;21.41;34.27;101401.47;4197030;28;20095;-65
2022/03/10 00:16:58;;;;;;;17.35;2.15;;;;;;;21.37;34.45;101392.81;4196876;28;20052;-65
2022/03/10 00:19:02;;;;;;;18.15;2.60;;;;;;;21.39;34.31;101398.94;4197807;28;20036;-65
2022/03/10 00:21:03;;;;;;;12.23;1.77;;;;;;;21.40;34.19;101410.94;4197053;28;20036;-63
2022/03/10 00:23:05;;;;;;;23.75;2.70;;;;;;;21.38;34.35;101407.56;4178717;28;20045;-65
2022/03/10 00:25:06;;;;;;;25.80;2.50;;;;;;;21.39;34.41;101396.16;4196401;28;20040;-65
2022/03/10 00:27:08;;;;;;;17.17;2.08;;;;;;;21.39;34.45;101390.59;4196801;28;20101;-65
2022/03/10 00:29:09;;;;;;;29.15;2.75;;;;;;;21.39;34.51;101407.28;4196708;28;20102;-62
2022/03/10 00:31:10;;;;;;;25.60;3.42;;;;;;;21.39;34.29;101403.69;4200254;28;22050;-63
2022/03/10 00:33:12;;;;;;;24.25;2.60;;;;;;;21.39;34.27;101403.69;4197315;28;20040;-64
2022/03/10 00:35:24;;;;;;;27.15;3.47;;;;;;;21.38;34.27;101388.09;4197031;28;20052;-64
2022/03/10 00:37:25;;;;;;;32.95;3.22;;;;;;;21.38;34.68;101376.94;4196994;28;20103;-65
2022/03/10 00:39:27;;;;;;;32.67;4.18;;;;;;;21.38;34.36;101402.00;4198730;28;20105;-64
2022/03/10 00:41:28;;;;;;;37.53;3.35;;;;;;;21.37;34.70;101394.78;4196406;28;20020;-66
2022/03/10 00:43:29;;;;;;;36.15;4.07;;;;;;;21.37;34.63;101408.69;4196585;28;20044;-65
2022/03/10 00:45:31;;;;;;;40.17;3.75;;;;;;;21.33;34.31;101404.78;4197562;28;20450;-65
2022/03/10 00:47:33;;;;;;;44.72;3.80;;;;;;;21.37;34.53;101408.69;4196774;28;20454;-65
2022/03/10 00:49:38;;;;;;;45.63;3.50;;;;;;;21.34;34.53;101404.50;4195783;28;20098;-64
2022/03/10 00:51:42;;;;;;;41.70;3.97;;;;;;;21.38;34.84;101407.56;4195380;28;20102;-65
2022/03/10 00:53:44;;;;;;;39.08;3.90;;;;;;;21.38;34.45;101419.53;4196725;28;20464;-65
2022/03/10 00:55:45;;;;;;;32.28;3.28;;;;;;;21.36;34.55;101415.38;4197587;28;20044;-67
2022/03/10 00:57:48;;;;;;;37.97;4.15;;;;;;;21.38;34.92;101424.28;4197806;28;20097;-64
2022/03/10 00:59:50;;;;;;;45.53;4.53;;;;;;;21.38;34.83;101418.72;4198261;28;20106;-64
2022/03/10 01:01:54;;;;;;;48.25;5.13;;;;;;;21.34;34.62;101412.00;4201304;28;20113;-65
2022/03/10 01:03:58;;;;;;;38.40;5.28;;;;;;;21.32;34.80;101426.22;4206257;28;20071;-65
2022/03/10 01:05:59;;;;;;;57.78;5.57;;;;;;;21.38;34.74;101435.41;4197494;28;20094;-65
2022/03/10 01:08:00;;;;;;;56.60;6.60;;;;;;;21.37;34.73;101445.72;4201340;28;20040;-65
2022/03/10 01:10:05;;;;;;;73.75;7.10;;;;;;;21.31;34.98;101425.38;4215920;28;20024;-65
2022/03/10 01:12:07;;;;;;;44.88;6.25;;;;;;;21.34;34.94;101439.84;4215773;28;20102;-66
2022/03/10 01:14:08;;;;;;;63.15;6.60;;;;;;;21.38;34.94;101452.13;4216912;28;20032;-67
2022/03/10 01:16:10;;;;;;;78.55;7.43;;;;;;;21.38;35.05;101464.09;4217059;28;20089;-66
2022/03/10 01:18:14;;;;;;;86.07;7.53;;;;;;;21.38;35.24;101466.88;4225325;28;20044;-67
2022/03/10 01:20:19;;;;;;;107.75;9.30;;;;;;;21.38;34.89;101466.03;4189715;28;20439;-66
2022/03/10 01:22:20;;;;;;;103.05;7.82;;;;;;;21.39;34.97;101478.84;4201412;28;20033;-68
2022/03/10 01:24:22;;;;;;;85.57;8.05;;;;;;;21.38;34.90;101485.53;4203773;28;20049;-66
2022/03/10 01:26:24;;;;;;;89.60;8.98;;;;;;;21.37;35.43;101486.66;4201677;28;20422;-64
2022/03/10 01:28:25;;;;;;;84.25;8.23;;;;;;;21.38;35.14;101491.09;4206296;28;20032;-67
2022/03/10 01:30:28;;;;;;;92.70;7.97;;;;;;;21.38;34.99;101502.22;4211576;28;20501;-66
2022/03/10 01:32:30;;;;;;;93.53;9.35;;;;;;;21.38;35.13;101514.22;4177487;28;20059;-74
2022/03/10 01:34:31;;;;;;;62.08;6.90;;;;;;;21.38;35.28;101510.59;4203065;28;20041;-76
2022/03/10 01:36:35;;;;;;;78.20;7.97;;;;;;;21.38;35.20;101513.38;4213901;28;20036;-74
2022/03/10 01:38:42;;;;;;;78.63;8.98;;;;;;;21.38;34.83;101528.13;4191919;28;20067;-75
2022/03/10 01:40:44;;;;;;;90.68;9.20;;;;;;;21.34;35.24;101512.22;4204505;28;20040;-76
2022/03/10 01:42:47;;;;;;;87.60;8.43;;;;;;;21.33;35.13;101527.25;4202545;28;20037;-74
2022/03/10 01:44:53;;;;;;;79.15;7.60;;;;;;;21.37;35.18;101534.81;4187264;28;20099;-75
2022/03/10 01:46:55;;;;;;;77.35;7.93;;;;;;;21.37;35.21;101539.53;4198070;28;20419;-72
2022/03/10 01:48:56;;;;;;;76.20;7.93;;;;;;;21.37;35.04;101542.31;4205686;28;20040;-71
2022/03/10 01:51:02;;;;;;;71.80;8.63;;;;;;;21.36;35.13;101546.22;4205830;28;20505;-74
2022/03/10 01:53:04;;;;;;;84.50;8.63;;;;;;;21.38;35.18;101561.53;4202630;28;20488;-73
2022/03/10 01:55:06;;;;;;;105.88;8.88;;;;;;;21.38;34.84;101561.53;4203034;28;20041;-72
2022/03/10 01:57:10;;;;;;;75.50;7.72;;;;;;;21.38;34.84;101571.84;4201429;28;20033;-70
2022/03/10 01:59:13;;;;;;;86.80;8.50;;;;;;;21.37;34.90;101579.34;4202007;28;20044;-70
2022/03/10 02:01:15;;;;;;;70.95;6.82;;;;;;;21.38;34.92;101581.03;4203290;28;20040;-70
2022/03/10 02:03:19;;;;;;;82.80;7.25;;;;;;;21.39;35.19;101576.28;4203372;28;20028;-72
2022/03/10 02:05:35;;;;;;;78.88;7.38;;;;;;;21.38;34.82;101577.41;4208262;28;20074;-73
2022/03/10 02:10:19;;;;;;;87.15;7.68;;;;;;;21.40;35.05;101580.78;4210940;28;20066;-74
2022/03/10 02:12:23;;;;;;;61.80;6.57;;;;;;;21.36;35.14;101587.97;4193427;28;20037;-73
2022/03/10 02:19:10;;;;;;;54.03;7.60;;;;;;;21.42;34.80;101592.47;4208515;28;20074;-72
2022/03/10 02:21:15;;;;;;;59.75;6.53;;;;;;;21.37;35.06;101589.66;4210619;28;20037;-75
2022/03/10 02:23:18;;;;;;;55.00;6.82;;;;;;;21.38;34.85;101596.88;4212561;28;20040;-74
2022/03/10 02:25:24;;;;;;;62.10;7.60;;;;;;;21.39;34.61;101604.13;4214049;28;20089;-74
2022/03/10 02:27:27;;;;;;;62.20;7.03;;;;;;;21.40;34.96;101600.25;4197894;28;20099;-74
2022/03/10 02:29:29;;;;;;;71.30;6.95;;;;;;;21.40;34.94;101600.25;4206162;28;20040;-72
2022/03/10 02:31:31;;;;;;;53.75;6.47;;;;;;;21.38;35.18;101600.50;4203741;28;20044;-72
2022/03/10 02:33:39;;;;;;;60.75;7.57;;;;;;;21.38;34.96;101606.06;4203353;28;20454;-74
2022/03/10 02:35:40;;;;;;;51.40;6.07;;;;;;;21.39;34.90;101604.13;4207157;28;20037;-74
2022/03/10 02:37:42;;;;;;;43.28;6.20;;;;;;;21.38;34.98;101608.88;4209357;28;20040;-74
2022/03/10 02:39:45;;;;;;;51.92;6.43;;;;;;;21.38;35.19;101620.00;4203905;28;20070;-74
2022/03/10 02:41:47;;;;;;;50.85;4.97;;;;;;;21.38;34.99;101621.94;4185689;28;20256;-72
2022/03/10 02:43:48;;;;;;;41.55;4.43;;;;;;;21.33;35.15;101621.91;4198805;28;20040;-73
2022/03/10 02:45:50;;;;;;;44.95;5.15;;;;;;;21.39;35.03;101620.84;4198948;28;20052;-73
2022/03/10 02:47:52;;;;;;;36.40;4.80;;;;;;;21.39;35.06;101631.97;4206033;28;20105;-73
2022/03/10 02:49:53;;;;;;;78.88;7.07;;;;;;;21.40;35.16;101628.09;4191098;28;20032;-75
2022/03/10 02:51:54;;;;;;;55.75;6.45;;;;;;;21.41;35.05;101629.78;4199800;28;20033;-68
2022/03/10 02:53:55;;;;;;;52.58;6.30;;;;;;;21.41;35.36;101625.03;4208763;28;20044;-67
2022/03/10 02:55:57;;;;;;;46.63;5.53;;;;;;;21.43;35.10;101631.16;4198435;28;20041;-68
2022/03/10 02:58:01;;;;;;;43.25;5.60;;;;;;;21.44;35.80;101634.78;4200865;28;20101;-71
2022/03/10 03:00:04;;;;;;;58.60;5.50;;;;;;;21.45;35.63;101636.50;4213153;28;20088;-69
2022/03/10 03:02:07;;;;;;;67.93;5.85;;;;;;;21.46;35.96;101639.00;4198975;28;20667;-70
2022/03/10 03:04:08;;;;;;;56.17;5.60;;;;;;;21.46;35.79;101638.16;4198899;28;20423;-70
2022/03/10 03:06:10;;;;;;;58.40;6.30;;;;;;;21.49;36.04;101637.63;4198210;28;20541;-71
2022/03/10 03:08:11;;;;;;;61.03;6.45;;;;;;;21.49;35.36;101640.41;4198063;28;20107;-71
2022/03/10 03:10:13;;;;;;;65.53;6.53;;;;;;;21.50;35.50;101645.72;4194609;28;20049;-71
2022/03/10 03:12:14;;;;;;;56.38;5.72;;;;;;;21.51;35.61;101641.81;4196064;28;20033;-71
2022/03/10 03:14:16;;;;;;;42.88;5.05;;;;;;;21.54;35.41;101648.81;4199047;28;20460;-70
2022/03/10 03:16:17;;;;;;;48.83;5.20;;;;;;;21.52;35.82;101643.47;4199106;28;20074;-71
2022/03/10 03:18:19;;;;;;;37.85;4.10;;;;;;;21.55;35.51;101642.13;4197188;28;20110;-71
2022/03/10 03:20:24;;;;;;;42.58;6.15;;;;;;;21.55;36.00;101642.97;4198191;28;20387;-71
2022/03/10 03:22:25;;;;;;;47.85;5.38;;;;;;;21.57;35.25;101639.91;4197542;28;20036;-70
2022/03/10 03:24:26;;;;;;;45.05;5.85;;;;;;;21.54;35.52;101640.44;4194281;28;20095;-70
2022/03/10 03:26:28;;;;;;;50.33;5.82;;;;;;;21.54;35.56;101646.03;4188520;28;20434;-70
2022/03/10 03:28:32;;;;;;;44.53;5.45;;;;;;;21.60;35.32;101656.06;4205539;28;20048;-71
2022/03/10 03:30:34;;;;;;;36.75;4.72;;;;;;;21.61;35.62;101668.06;4207101;28;20041;-72
2022/03/10 03:32:36;;;;;;;43.35;4.65;;;;;;;21.61;35.22;101663.31;4180595;28;20131;-71
2022/03/10 03:34:40;;;;;;;46.53;4.43;;;;;;;21.62;35.38;101675.28;4199133;28;20036;-68
2022/03/10 03:36:44;;;;;;;35.60;3.78;;;;;;;21.63;35.74;101680.63;4197829;28;20048;-70
2022/03/10 03:38:45;;;;;;;38.67;4.38;;;;;;;21.64;35.76;101685.06;4181956;28;20079;-68
2022/03/10 03:40:49;;;;;;;36.50;4.63;;;;;;;21.66;35.41;101684.78;4188066;28;20560;-71
2022/03/10 03:42:50;;;;;;;33.22;4.60;;;;;;;21.59;35.68;101682.25;4203328;28;20426;-73
2022/03/10 03:44:51;;;;;;;33.67;4.32;;;;;;;21.63;35.44;101700.13;4211403;28;20041;-73
2022/03/10 03:46:53;;;;;;;43.00;4.25;;;;;;;21.66;35.37;101710.69;4180433;28;20114;-72
2022/03/10 03:48:55;;;;;;;30.33;3.60;;;;;;;21.67;35.40;101712.41;4196556;28;20518;-73
2022/03/10 03:50:56;;;;;;;16.90;3.83;;;;;;;21.68;35.69;101714.06;4196935;28;20079;-71
2022/03/10 03:52:58;;;;;;;26.25;3.55;;;;;;;21.67;35.75;101706.84;4197492;28;20541;-72
2022/03/10 03:54:59;;;;;;;32.47;4.07;;;;;;;21.68;35.64;101702.94;4198121;28;20415;-68
2022/03/10 03:57:01;;;;;;;19.38;3.35;;;;;;;21.68;35.34;101714.06;4198639;28;20098;-70
2022/03/10 03:59:02;;;;;;;21.77;3.25;;;;;;;21.70;35.31;101714.63;4198716;28;20499;-71
2022/03/10 04:01:06;;;;;;;21.33;3.90;;;;;;;21.70;35.09;101711.84;4207385;28;20078;-71
2022/03/10 04:03:11;;;;;;;31.10;3.10;;;;;;;21.53;35.36;101680.53;4198601;28;20048;-70
2022/03/10 04:05:13;;;;;;;;;;;;;;;21.72;35.30;101700.47;4194666;28;20533;-67
2022/03/10 04:07:17;;;;;;;25.42;4.78;;;;;;;21.78;35.49;101708.56;4196037;28;19974;-61
2022/03/10 04:09:18;;;;;;;27.50;3.78;;;;;;;21.79;35.59;101721.38;4196876;28;20504;-61
2022/03/10 04:11:22;;;;;;;23.58;2.85;;;;;;;21.78;35.12;101721.66;4206857;28;20093;-61
2022/03/10 04:13:24;;;;;;;29.98;3.67;;;;;;;21.78;35.50;101724.44;4196831;28;20101;-61
2022/03/10 04:15:25;;;;;;;29.42;3.97;;;;;;;21.77;35.13;101729.19;4196731;28;20094;-62
2022/03/10 04:17:27;;;;;;;22.42;2.88;;;;;;;21.76;34.98;101730.28;4201032;28;20624;-62
2022/03/10 04:19:32;;;;;;;29.38;2.70;;;;;;;21.76;35.46;101727.50;4197742;28;20036;-62
2022/03/10 04:21:33;;;;;;;31.60;3.55;;;;;;;21.76;35.32;101737.78;4196891;28;20044;-62
2022/03/10 04:23:35;;;;;;;20.13;2.50;;;;;;;21.77;35.01;101729.19;4194631;28;20036;-62
2022/03/10 04:25:36;;;;;;;24.40;3.63;;;;;;;21.76;35.30;101715.50;4196098;28;20045;-62
2022/03/10 04:27:39;;;;;;;18.05;2.65;;;;;;;21.73;35.25;101716.91;4179698;28;20512;-62
2022/03/10 04:29:46;;;;;;;17.92;2.30;;;;;;;21.76;34.98;101724.72;4196323;28;20049;-63
2022/03/10 04:31:48;;;;;;;17.15;2.67;;;;;;;21.77;35.53;101720.81;4195422;28;20097;-64
2022/03/10 04:33:49;;;;;;;14.57;2.00;;;;;;;21.78;35.49;101716.94;4207740;28;20070;-63
2022/03/10 04:35:51;;;;;;;14.40;2.97;;;;;;;21.77;35.07;101695.75;4204552;28;20037;-64
2022/03/10 04:37:53;;;;;;;7.07;1.67;;;;;;;21.77;35.25;101703.28;4198307;28;20094;-63
2022/03/10 04:39:55;;;;;;;17.45;2.95;;;;;;;21.76;34.83;101698.78;4197530;28;20044;-64
2022/03/10 04:41:56;;;;;;;14.07;1.85;;;;;;;21.75;34.69;101697.94;4197341;28;20036;-65
2022/03/10 04:43:58;;;;;;;15.45;2.30;;;;;;;21.74;34.78;101704.63;4197428;28;20041;-63
2022/03/10 04:46:03;;;;;;;15.02;2.33;;;;;;;21.76;35.01;101715.50;4204250;28;20040;-64
2022/03/10 04:48:09;;;;;;;;;;;;;;;21.75;34.53;101720.25;4200616;28;20369;-63
2022/03/10 04:50:12;;;;;;;5.13;1.40;;;;;;;21.82;34.77;101718.06;4197472;28;19913;-64
2022/03/10 04:52:13;;;;;;;10.40;1.52;;;;;;;21.82;34.59;101720.84;4196753;28;20036;-64
2022/03/10 04:54:15;;;;;;;5.30;1.23;;;;;;;21.81;34.61;101724.75;4197638;28;20021;-66
2022/03/10 04:56:16;;;;;;;3.65;1.08;;;;;;;21.80;34.40;101738.94;4196325;28;20094;-64
2022/03/10 04:58:18;;;;;;;8.93;1.33;;;;;;;21.78;34.64;101747.56;4197052;28;20048;-63
2022/03/10 05:00:22;;;;;;;2.03;0.88;;;;;;;21.77;34.48;101751.47;4196787;28;20040;-64
2022/03/10 05:02:24;;;;;;;9.15;1.88;;;;;;;21.79;34.45;101752.03;4195930;28;20040;-65
2022/03/10 05:04:25;;;;;;;5.82;0.95;;;;;;;21.76;34.86;101755.38;4197325;28;20036;-63
2022/03/10 05:06:27;;;;;;;6.50;1.17;;;;;;;21.78;34.33;101758.72;4197046;28;20024;-65
2022/03/10 05:08:28;;;;;;;3.70;1.20;;;;;;;21.79;34.69;101760.38;4196815;28;20565;-65
2022/03/10 05:10:29;;;;;;;6.85;1.23;;;;;;;21.75;34.46;101745.31;4197357;28;20048;-64
2022/03/10 05:12:31;;;;;;;4.03;0.85;;;;;;;21.78;34.44;101746.75;4196861;28;20040;-65
2022/03/10 05:14:32;;;;;;;3.33;1.05;;;;;;;21.79;34.70;101743.66;4197471;28;20048;-64
2022/03/10 05:16:34;;;;;;;5.05;1.00;;;;;;;21.79;34.69;101740.88;4197017;28;20067;-65
2022/03/10 05:18:35;;;;;;;3.03;0.95;;;;;;;21.77;34.72;101731.97;4197178;28;20078;-64
2022/03/10 05:20:36;;;;;;;4.88;1.27;;;;;;;21.78;34.66;101736.44;4196920;28;20036;-64
2022/03/10 05:23:13;;;;;;;10.05;1.50;;;;;;;21.76;34.32;101749.81;4197092;28;20373;-65
2022/03/10 05:25:16;;;;;;;3.72;1.05;;;;;;;21.79;34.39;101760.38;4179653;28;20033;-66
2022/03/10 05:27:20;;;;;;;3.85;0.93;;;;;;;21.79;34.75;101763.19;4183021;28;20079;-64
2022/03/10 05:29:21;;;;;;;2.05;0.77;;;;;;;21.79;34.65;101765.97;4196511;28;20029;-64
2022/03/10 05:31:23;;;;;;;6.20;0.95;;;;;;;21.79;34.61;101760.38;4196482;28;20090;-64
2022/03/10 05:33:24;;;;;;;3.90;1.15;;;;;;;21.79;34.43;101760.38;4197206;28;20036;-64
2022/03/10 05:35:29;;;;;;;3.35;1.05;;;;;;;21.78;34.77;101753.16;4196644;28;20094;-65
2022/03/10 05:37:31;;;;;;;4.00;0.82;;;;;;;21.79;34.52;101754.81;4195171;28;20036;-65
2022/03/10 05:39:32;;;;;;;2.83;0.88;;;;;;;21.80;34.38;101750.91;4197525;28;20173;-64
2022/03/10 05:41:34;;;;;;;2.00;0.80;;;;;;;21.80;34.74;101738.94;4196512;28;20040;-65
2022/03/10 05:43:38;;;;;;;1.98;0.80;;;;;;;21.78;34.66;101739.22;4196225;28;20036;-64
2022/03/10 05:45:39;;;;;;;3.20;0.98;;;;;;;21.79;34.70;101726.97;4199202;28;20070;-64
2022/03/10 05:47:43;;;;;;;5.43;1.13;;;;;;;21.80;34.53;101727.78;4199993;28;20041;-65
2022/03/10 05:49:44;;;;;;;3.22;0.80;;;;;;;21.75;34.71;101719.41;4199723;28;20041;-64
2022/03/10 05:51:46;;;;;;;2.15;0.93;;;;;;;21.79;34.52;101724.16;4199311;28;20097;-64
2022/03/10 05:53:50;;;;;;;3.08;0.80;;;;;;;21.79;34.74;101718.59;4199645;28;20056;-64
2022/03/10 05:55:52;;;;;;;2.45;1.00;;;;;;;21.79;34.44;101712.19;4199647;28;20041;-64
2022/03/10 05:57:53;;;;;;;2.22;0.77;;;;;;;21.74;34.76;101718.56;4200507;28;20037;-65
2022/03/10 05:59:55;;;;;;;2.30;0.85;;;;;;;21.80;34.21;101738.94;4209439;28;20056;-65
2022/03/10 06:01:56;;;;;;;1.38;0.80;;;;;;;21.80;34.71;101744.50;4201666;28;20082;-64
2022/03/10 06:03:57;;;;;;;1.98;0.80;;;;;;;21.80;34.30;101750.91;4199777;28;20090;-64
2022/03/10 06:05:59;;;;;;;1.45;0.75;;;;;;;21.80;34.58;101752.88;4199538;28;20040;-64
2022/03/10 06:08:00;;;;;;;3.45;0.95;;;;;;;21.80;34.20;101755.66;4205512;28;20044;-64
2022/03/10 06:10:03;;;;;;;1.77;0.70;;;;;;;21.81;34.27;101757.34;4215883;28;20433;-63
2022/03/10 06:12:10;;;;;;;1.85;0.80;;;;;;;21.80;34.35;101756.50;4217323;28;20044;-66
2022/03/10 06:14:11;;;;;;;0.95;0.80;;;;;;;21.80;34.51;101764.00;4221541;28;20047;-64
2022/03/10 06:16:13;;;;;;;3.17;0.98;;;;;;;21.81;34.59;101760.16;4217315;28;20028;-64
2022/03/10 06:18:14;;;;;;;1.25;0.70;;;;;;;21.81;34.38;101762.94;4200361;28;20040;-64
2022/03/10 06:20:15;;;;;;;3.10;0.70;;;;;;;21.80;34.43;101770.41;4199558;28;20090;-64
2022/03/10 06:22:18;;;;;;;1.02;0.68;;;;;;;21.80;34.65;101764.84;4202087;28;20431;-65
2022/03/10 06:24:19;;;;;;;1.75;0.77;;;;;;;21.80;34.23;101770.41;4205954;28;20094;-64
2022/03/10 06:26:21;;;;;;;1.58;0.82;;;;;;;21.79;34.10;101771.53;4188616;28;20029;-65
2022/03/10 06:28:25;;;;;;;1.60;0.95;;;;;;;21.80;34.12;101767.63;4206955;28;20086;-65
2022/03/10 06:30:26;;;;;;;1.85;0.90;;;;;;;21.80;34.25;101778.78;4202402;28;20037;-65
2022/03/10 06:32:28;;;;;;;3.42;0.68;;;;;;;21.79;34.32;101782.69;4206729;28;20086;-64
2022/03/10 06:34:29;;;;;;;3.10;0.93;;;;;;;21.81;34.02;101783.28;4203011;28;20029;-65
2022/03/10 06:36:31;;;;;;;1.67;0.75;;;;;;;21.81;34.44;101786.06;4197040;28;20041;-64
2022/03/10 06:38:38;;;;;;;1.17;0.88;;;;;;;21.81;34.45;101776.84;4203545;28;20044;-64
2022/03/10 06:40:40;;;;;;;2.50;1.05;;;;;;;21.78;34.36;101769.84;4187323;28;20029;-65
2022/03/10 06:42:42;;;;;;;4.68;1.08;;;;;;;21.81;34.14;101768.50;4199975;28;20037;-64
2022/03/10 06:44:46;;;;;;;1.60;1.10;;;;;;;21.80;34.48;101766.78;4203756;28;20036;-64
2022/03/10 06:46:47;;;;;;;1.47;0.77;;;;;;;21.79;34.38;101760.38;4209585;28;20098;-64
2022/03/10 06:48:49;;;;;;;1.30;0.70;;;;;;;21.77;34.42;101750.63;4199237;28;20270;-65
2022/03/10 06:50:50;;;;;;;1.70;0.88;;;;;;;21.79;34.29;101754.81;4213421;28;20051;-64
2022/03/10 06:52:56;;;;;;;1.55;0.90;;;;;;;21.79;34.10;101765.97;4209216;28;20070;-64
2022/03/10 06:54:57;;;;;;;;;;;;;;;21.77;34.36;101768.19;4198737;28;20488;-64
2022/03/10 06:56:58;;;;;;;1.27;0.77;;;;;;;21.83;34.29;101764.31;4202402;28;19931;-64
2022/03/10 06:59:03;;;;;;;1.25;0.85;;;;;;;21.83;34.13;101757.91;4212387;28;20028;-64
2022/03/10 07:01:04;;;;;;;2.67;1.42;;;;;;;21.82;33.87;101764.59;4199203;28;20037;-64
2022/03/10 07:03:08;;;;;;;3.50;1.27;;;;;;;21.79;34.09;101760.38;4198785;28;20036;-64
2022/03/10 07:05:10;;;;;;;2.63;0.80;;;;;;;21.80;34.05;101770.41;4207635;28;20364;-65
2022/03/10 07:07:11;;;;;;;1.50;1.15;;;;;;;21.79;34.34;101785.47;4215686;28;20070;-65
2022/03/10 07:09:16;;;;;;;1.70;1.10;;;;;;;21.78;34.42;101789.38;4213878;28;20036;-64
2022/03/10 07:11:18;;;;;;;2.38;0.88;;;;;;;21.77;34.32;101800.78;4185730;28;20041;-65
2022/03/10 07:13:20;;;;;;;1.80;1.00;;;;;;;21.76;34.37;101799.06;4212645;28;20117;-65
2022/03/10 07:15:22;;;;;;;1.90;0.98;;;;;;;21.70;34.37;101789.84;4199320;28;20084;-66
2022/03/10 07:17:24;;;;;;;1.45;1.08;;;;;;;21.75;34.11;101797.41;4212458;28;20097;-63
2022/03/10 07:19:26;;;;;;;2.88;1.15;;;;;;;21.73;34.39;101794.91;4214770;28;20438;-64
2022/03/10 07:21:27;;;;;;;1.20;1.10;;;;;;;21.71;34.22;101785.94;4204318;28;20101;-65
2022/03/10 07:23:29;;;;;;;1.13;0.95;;;;;;;21.68;34.19;101791.22;4198094;28;20082;-65
2022/03/10 07:25:30;;;;;;;2.00;1.10;;;;;;;21.74;33.93;101806.88;4212150;28;20430;-64
2022/03/10 07:27:31;;;;;;;1.92;0.95;;;;;;;21.72;34.16;101809.94;4213301;28;20093;-67
2022/03/10 07:29:36;;;;;;;1.27;1.08;;;;;;;21.68;34.05;101807.94;4212794;28;20047;-64
2022/03/10 07:31:40;;;;;;;1.20;1.10;;;;;;;21.71;33.96;101816.59;4202555;28;20044;-64
2022/03/10 07:33:41;;;;;;;2.17;1.10;;;;;;;21.71;33.91;101819.38;4201692;28;20343;-64
2022/03/10 07:35:44;;;;;;;2.58;1.02;;;;;;;21.71;34.02;101813.81;4198207;28;20070;-64
2022/03/10 07:37:49;;;;;;;3.25;1.08;;;;;;;21.72;34.27;101818.28;4198445;28;20036;-66
2022/03/10 07:39:51;;;;;;;1.13;1.00;;;;;;;21.70;34.22;101814.91;4202354;28;20048;-65
2022/03/10 07:41:53;;;;;;;0.88;0.85;;;;;;;21.70;34.29;101822.44;4184912;28;20732;-65
2022/03/10 07:43:54;;;;;;;1.55;0.98;;;;;;;21.69;34.38;101816.03;4210506;28;20102;-64
2022/03/10 07:45:58;;;;;;;1.35;1.00;;;;;;;21.68;33.83;101819.94;4210613;28;20095;-65
2022/03/10 07:48:05;;;;;;;3.13;1.10;;;;;;;21.69;34.27;101829.97;4208992;28;20376;-65
2022/03/10 07:50:07;;;;;;;1.23;1.05;;;;;;;21.68;34.01;101831.06;4198243;28;20044;-64
2022/03/10 07:52:09;;;;;;;1.23;1.00;;;;;;;21.68;34.15;101831.06;4202228;28;20040;-65
2022/03/10 07:54:11;;;;;;;1.90;1.02;;;;;;;21.68;34.14;101830.22;4214208;28;20097;-63
2022/03/10 07:56:13;;;;;;;1.10;0.90;;;;;;;21.66;34.07;101833.25;4205086;28;20044;-65
2022/03/10 07:58:14;;;;;;;1.30;1.20;;;;;;;21.62;34.00;101826.53;4198912;28;20044;-64
2022/03/10 08:00:16;;;;;;;1.33;1.02;;;;;;;21.67;33.85;101834.97;4212856;28;20719;-65
2022/03/10 08:02:18;;;;;;;1.65;0.90;;;;;;;21.64;34.10;101829.91;4212467;28;20048;-65
2022/03/10 08:04:19;;;;;;;1.30;1.20;;;;;;;21.65;34.10;101837.16;4201422;28;20083;-65
2022/03/10 08:06:22;;;;;;;1.08;0.98;;;;;;;21.67;34.07;101837.75;4202526;28;20028;-63
2022/03/10 08:08:23;;;;;;;1.70;1.08;;;;;;;21.65;34.00;101845.50;4197102;28;20040;-64
2022/03/10 08:10:24;;;;;;;3.70;1.10;;;;;;;21.66;34.19;101849.97;4200031;28;20036;-64
2022/03/10 08:12:30;;;;;;;1.30;1.20;;;;;;;21.64;34.18;101857.78;4213656;28;20089;-64
2022/03/10 08:14:34;;;;;;;1.42;1.33;;;;;;;21.64;34.06;101857.78;4199601;28;20098;-64
2022/03/10 08:16:35;;;;;;;1.27;0.90;;;;;;;21.64;34.18;101880.06;4207660;28;20036;-64
2022/03/10 08:18:38;;;;;;;3.20;1.40;;;;;;;21.65;34.16;101881.72;4197449;28;20040;-65
2022/03/10 08:20:41;;;;;;;3.55;1.40;;;;;;;21.64;33.98;101882.84;4197211;28;20041;-64
2022/03/10 08:22:42;;;;;;;2.17;1.25;;;;;;;21.60;34.09;101884.47;4197578;28;20114;-63
2022/03/10 08:24:44;;;;;;;1.50;1.20;;;;;;;21.64;33.98;101891.19;4210713;28;20109;-64
2022/03/10 08:26:46;;;;;;;1.88;1.35;;;;;;;21.64;33.79;101887.56;4213625;28;20054;-64
2022/03/10 08:28:51;;;;;;;1.42;1.20;;;;;;;21.56;33.93;101872.16;4212206;28;20047;-64
2022/03/10 08:30:52;;;;;;;3.22;1.10;;;;;;;21.63;34.16;101871.97;4211543;28;20048;-64
2022/03/10 08:32:57;;;;;;;1.55;1.10;;;;;;;21.62;34.11;101864.69;4213455;28;20036;-64
2022/03/10 08:34:59;;;;;;;2.05;1.23;;;;;;;21.62;33.88;101871.09;4211204;28;20048;-64
2022/03/10 08:37:00;;;;;;;2.60;1.20;;;;;;;21.62;33.78;101871.09;4186632;28;20025;-64
2022/03/10 08:39:01;;;;;;;1.48;0.90;;;;;;;21.60;34.08;101881.69;4198068;28;20062;-64
2022/03/10 08:41:03;;;;;;;1.35;1.00;;;;;;;21.62;34.10;101886.97;4197506;28;20044;-65
2022/03/10 08:43:05;;;;;;;1.20;0.88;;;;;;;21.59;33.76;101882.78;4198696;28;20036;-64
2022/03/10 08:45:07;;;;;;;1.25;1.10;;;;;;;21.62;33.88;101900.91;4200729;28;20549;-65
2022/03/10 08:47:08;;;;;;;2.47;1.17;;;;;;;21.56;33.87;101888.88;4203267;28;20090;-64
2022/03/10 08:49:09;;;;;;;0.85;0.85;;;;;;;21.59;34.01;101882.78;4196797;28;20131;-64
2022/03/10 08:51:11;;;;;;;2.35;1.10;;;;;;;21.60;33.82;101884.47;4196933;28;20480;-64
2022/03/10 08:53:15;;;;;;;1.50;1.08;;;;;;;21.60;33.81;101884.47;4197787;28;20044;-64
2022/03/10 08:55:17;;;;;;;1.58;1.10;;;;;;;21.58;34.11;101872.75;4197957;28;20094;-65
2022/03/10 08:57:18;;;;;;;2.75;1.00;;;;;;;21.59;33.80;101887.53;4197469;28;20040;-63
2022/03/10 08:59:20;;;;;;;1.00;0.90;;;;;;;21.57;34.03;101879.41;4197737;28;20036;-64
2022/03/10 09:01:21;;;;;;;2.28;0.88;;;;;;;21.57;34.07;101890.56;4197269;28;20078;-64
2022/03/10 09:03:26;;;;;;;1.50;1.15;;;;;;;21.55;33.75;101887.19;4197083;28;20044;-64
2022/03/10 09:05:34;;;;;;;1.38;1.23;;;;;;;21.56;34.22;101905.59;4197135;28;20502;-64
2022/03/10 09:07:38;;;;;;;1.50;1.20;;;;;;;21.52;34.12;101898.84;4211077;28;20089;-64
2022/03/10 09:09:39;;;;;;;1.15;1.05;;;;;;;21.53;33.61;101894.97;4213401;28;20032;-64
2022/03/10 09:11:43;;;;;;;0.98;0.90;;;;;;;21.57;33.64;101896.97;4198797;28;20059;-65
2022/03/10 09:13:48;;;;;;;1.42;0.90;;;;;;;21.55;33.72;101904.75;4179586;28;20087;-65
2022/03/10 09:15:49;;;;;;;0.93;0.90;;;;;;;21.57;33.62;101912.84;4197726;28;20044;-66
2022/03/10 09:17:51;;;;;;;1.15;1.00;;;;;;;21.55;33.84;101915.06;4213268;28;20075;-64
2022/03/10 09:19:53;;;;;;;3.08;1.10;;;;;;;21.54;33.74;101922.56;4198939;28;20036;-64
2022/03/10 09:22:02;;;;;;;1.33;1.20;;;;;;;21.53;33.62;101917.25;4190806;28;20437;-64
2022/03/10 09:24:03;;;;;;;1.10;1.00;;;;;;;21.54;33.67;101927.31;4200121;28;20098;-64
2022/03/10 09:26:05;;;;;;;1.70;1.13;;;;;;;21.53;33.61;101906.97;4209426;28;20549;-64
2022/03/10 09:28:07;;;;;;;1.80;1.10;;;;;;;21.53;34.07;101911.66;4217701;28;20471;-66
2022/03/10 09:30:12;;;;;;;1.20;1.10;;;;;;;21.52;33.55;101910.00;4212972;28;20726;-64
2022/03/10 09:32:17;;;;;;;2.45;1.00;;;;;;;21.51;33.86;101908.31;4199883;28;20450;-64
2022/03/10 09:34:22;;;;;;;1.60;1.15;;;;;;;21.50;33.72;101917.78;4199780;28;20045;-64